createdAt,value
2019-02-04T00:00:44.022Z,2.60
2019-02-04T00:05:40.264Z,2.60
2019-02-04T00:10:38.871Z,2.60
2019-02-04T00:15:32.866Z,2.70
2019-02-04T00:20:29.203Z,2.60
2019-02-04T00:25:27.776Z,2.50
2019-02-04T00:30:24.067Z,2.40
2019-02-04T00:35:22.246Z,2.30
2019-02-04T00:40:31.718Z,2.20
2019-02-04T00:45:29.503Z,2.10
2019-02-04T00:50:25.761Z,2.10
2019-02-04T00:55:25.580Z,2.00
2019-02-04T01:00:28.517Z,2.10
2019-02-04T01:05:26.024Z,2.10
2019-02-04T01:10:23.991Z,1.90
2019-02-04T01:15:24.702Z,1.80
2019-02-04T01:20:29.764Z,1.70
2019-02-04T01:25:27.500Z,1.50
2019-02-04T01:30:23.623Z,1.30
2019-02-04T01:35:21.887Z,1.10
2019-02-04T01:40:18.963Z,1.00
2019-02-04T01:45:16.434Z,0.90
2019-02-04T01:50:18.516Z,0.80
2019-02-04T01:55:11.892Z,0.80
2019-02-04T02:00:13.154Z,0.90
2019-02-04T02:05:18.519Z,0.90
2019-02-04T02:10:20.289Z,0.90
2019-02-04T02:15:19.227Z,0.70
2019-02-04T02:20:20.879Z,0.60
2019-02-04T02:25:19.192Z,0.60
2019-02-04T02:30:19.085Z,0.70
2019-02-04T02:35:19.831Z,0.90
2019-02-04T02:40:38.957Z,1.00
2019-02-04T02:45:36.386Z,1.30
2019-02-04T02:50:35.263Z,1.40
2019-02-04T02:55:29.295Z,1.50
2019-02-04T03:00:27.603Z,1.60
2019-02-04T03:05:23.428Z,1.70
2019-02-04T03:10:26.782Z,1.80
2019-02-04T03:15:27.165Z,1.80
2019-02-04T03:20:26.594Z,1.90
2019-02-04T03:25:21.922Z,1.90
2019-02-04T03:30:29.969Z,2.00
2019-02-04T03:35:25.071Z,2.00
2019-02-04T03:40:22.732Z,2.00
2019-02-04T03:45:19.362Z,2.10
2019-02-04T03:50:17.078Z,2.10
2019-02-04T03:55:19.485Z,2.10
2019-02-04T04:00:28.569Z,2.10
2019-02-04T04:05:27.115Z,2.20
2019-02-04T04:10:27.293Z,2.20
2019-02-04T04:15:25.600Z,2.20
2019-02-04T04:20:26.800Z,2.20
2019-02-04T04:25:23.594Z,2.20
2019-02-04T04:30:20.215Z,2.30
2019-02-04T04:35:23.231Z,2.30
2019-02-04T04:40:25.780Z,2.30
2019-02-04T04:45:27.434Z,2.30
2019-02-04T04:50:29.078Z,2.30
2019-02-04T04:55:31.660Z,2.40
2019-02-04T05:00:33.746Z,2.40
2019-02-04T05:05:30.242Z,2.40
2019-02-04T05:10:25.105Z,2.40
2019-02-04T05:15:30.552Z,2.40
2019-02-04T05:20:28.450Z,2.40
2019-02-04T05:25:23.959Z,2.40
2019-02-04T05:30:25.742Z,2.50
2019-02-04T05:35:23.119Z,2.50
2019-02-04T05:40:17.918Z,2.50
2019-02-04T05:45:15.321Z,2.30
2019-02-04T05:50:13.994Z,2.20
2019-02-04T05:55:11.711Z,2.00
2019-02-04T06:00:28.305Z,1.90
2019-02-04T06:05:25.032Z,2.00
2019-02-04T06:10:19.359Z,2.10
2019-02-04T06:15:15.906Z,2.10
2019-02-04T06:20:14.742Z,2.10
2019-02-04T06:25:09.562Z,2.10
2019-02-04T06:30:15.623Z,2.10
2019-02-04T06:35:12.705Z,2.00
2019-02-04T06:40:11.285Z,2.00
2019-02-04T06:45:08.611Z,1.90
2019-02-04T06:50:03.667Z,1.90
2019-02-04T06:54:57.545Z,1.90
2019-02-04T06:59:54.406Z,2.00
2019-02-04T07:04:49.015Z,2.20
2019-02-04T07:09:45.091Z,2.20
2019-02-04T07:14:42.565Z,2.40
2019-02-04T07:19:39.436Z,2.60
2019-02-04T07:24:42.488Z,3.30
2019-02-04T07:29:30.483Z,4.10
2019-02-04T07:34:24.958Z,4.70
2019-02-04T07:39:18.941Z,5.60
2019-02-04T07:44:14.831Z,6.30
2019-02-04T07:49:09.812Z,7.50
2019-02-04T07:54:03.711Z,8.60
2019-02-04T07:58:58.472Z,9.50
2019-02-04T08:03:56.055Z,11.50
2019-02-04T08:08:53.831Z,13.40
2019-02-04T08:13:50.462Z,14.80
2019-02-04T08:18:45.374Z,14.20
2019-02-04T08:23:49.508Z,14.50
2019-02-04T08:28:45.712Z,13.50
2019-02-04T08:33:40.652Z,12.10
2019-02-04T08:38:35.757Z,11.50
2019-02-04T08:43:30.356Z,10.60
2019-02-04T08:48:26.703Z,9.80
2019-02-04T08:53:21.977Z,9.60
2019-02-04T08:58:18.253Z,11.00
2019-02-04T09:03:12.942Z,13.60
2019-02-04T09:08:10.725Z,15.90
2019-02-04T09:13:08.622Z,17.80
2019-02-04T09:18:05.487Z,19.10
2019-02-04T09:23:00.389Z,19.40
2019-02-04T09:27:56.659Z,18.60
2019-02-04T09:32:52.490Z,18.70
2019-02-04T09:37:48.466Z,17.90
2019-02-04T09:42:43.731Z,17.70
2019-02-04T09:47:38.138Z,20.40
2019-02-04T09:52:32.747Z,24.70
2019-02-04T09:57:28.366Z,28.50
2019-02-04T10:02:22.472Z,25.20
2019-02-04T10:07:17.226Z,21.30
2019-02-04T10:12:12.336Z,20.00
2019-02-04T10:17:06.729Z,24.50
2019-02-04T10:22:01.767Z,28.70
2019-02-04T10:26:59.815Z,29.10
2019-02-04T10:31:59.064Z,26.80
2019-02-04T10:36:52.898Z,27.20
2019-02-04T10:41:47.567Z,25.30
2019-02-04T10:46:41.949Z,21.20
2019-02-04T10:51:37.944Z,20.20
2019-02-04T10:56:36.133Z,22.60
2019-02-04T11:01:31.433Z,23.70
2019-02-04T11:06:31.175Z,24.40
2019-02-04T11:11:25.148Z,26.00
2019-02-04T11:16:20.897Z,26.70
2019-02-04T11:21:15.752Z,28.10
2019-02-04T11:26:15.441Z,28.40
2019-02-04T11:31:10.019Z,30.30
2019-02-04T11:36:11.993Z,30.40
2019-02-04T11:41:10.100Z,30.30
2019-02-04T11:46:07.650Z,28.50
2019-02-04T11:51:09.779Z,27.70
2019-02-04T11:56:05.019Z,27.30
2019-02-04T12:01:16.617Z,26.00
2019-02-04T12:06:11.027Z,23.10
2019-02-04T12:11:09.668Z,19.80
2019-02-04T12:16:05.646Z,16.50
2019-02-04T12:21:05.846Z,14.60
2019-02-04T12:26:00.176Z,12.60
2019-02-04T12:30:54.602Z,10.80
2019-02-04T12:35:48.899Z,9.50
2019-02-04T12:40:43.296Z,8.60
2019-02-04T12:45:40.343Z,7.90
2019-02-04T12:50:36.096Z,7.50
2019-02-04T12:55:37.653Z,7.20
2019-02-04T13:00:33.391Z,7.00
2019-02-04T13:05:46.441Z,6.80
2019-02-04T13:10:51.971Z,6.70
2019-02-04T13:15:48.748Z,6.50
2019-02-04T13:20:43.266Z,6.30
2019-02-04T13:25:38.520Z,6.20
2019-02-04T13:30:32.790Z,6.20
2019-02-04T13:35:31.011Z,6.20
2019-02-04T13:40:29.587Z,6.30
2019-02-04T13:45:25.321Z,6.40
2019-02-04T13:50:23.064Z,6.50
2019-02-04T13:55:31.301Z,6.40
2019-02-04T14:00:31.040Z,6.20
2019-02-04T14:05:27.355Z,6.10
2019-02-04T14:10:24.360Z,6.00
2019-02-04T14:15:22.487Z,5.90
2019-02-04T14:20:23.025Z,6.00
2019-02-04T14:25:17.766Z,5.90
2019-02-04T14:30:32.542Z,6.00
2019-02-04T14:35:28.526Z,5.90
2019-02-04T14:40:24.262Z,5.70
2019-02-04T14:45:22.599Z,5.60
2019-02-04T14:50:28.439Z,5.60
2019-02-04T14:55:33.491Z,5.50
2019-02-04T15:00:47.461Z,5.40
2019-02-04T15:05:49.279Z,5.30
2019-02-04T15:10:46.404Z,5.20
2019-02-04T15:15:49.778Z,5.00
2019-02-04T15:20:56.135Z,5.00
2019-02-04T15:26:27.787Z,4.80
2019-02-04T15:31:52.969Z,4.60
2019-02-04T15:37:09.902Z,4.50
2019-02-04T15:42:31.503Z,4.40
2019-02-04T15:47:22.454Z,4.20
2019-02-04T15:52:17.207Z,4.00
2019-02-04T15:57:12.043Z,3.80
2019-02-04T16:02:08.081Z,3.50
2019-02-04T16:07:03.229Z,3.60
2019-02-04T16:11:57.805Z,3.30
2019-02-04T16:16:52.573Z,3.10
2019-02-04T16:21:48.917Z,2.90
2019-02-04T16:26:44.511Z,2.90
2019-02-04T16:31:39.395Z,2.90
2019-02-04T16:36:36.806Z,2.80
2019-02-04T16:41:35.284Z,2.70
2019-02-04T16:46:30.155Z,2.70
2019-02-04T16:51:26.409Z,2.60
2019-02-04T16:56:22.346Z,2.50
2019-02-04T17:01:17.681Z,2.30
2019-02-04T17:06:11.591Z,2.20
2019-02-04T17:11:08.650Z,2.20
2019-02-04T17:16:05.701Z,2.00
2019-02-04T17:21:05.567Z,2.00
2019-02-04T17:25:59.912Z,1.90
2019-02-04T17:30:57.923Z,1.80
2019-02-04T17:35:58.356Z,1.90
2019-02-04T17:40:52.918Z,1.80
2019-02-04T17:45:47.805Z,1.60
2019-02-04T17:50:42.733Z,1.50
2019-02-04T17:55:39.178Z,1.40
2019-02-04T18:00:34.842Z,1.30
2019-02-04T18:05:31.493Z,1.40
2019-02-04T18:10:27.706Z,1.30
2019-02-04T18:15:24.665Z,1.20
2019-02-04T18:20:18.736Z,1.10
2019-02-04T18:25:17.071Z,1.00
2019-02-04T18:30:18.057Z,0.80
2019-02-04T18:35:14.980Z,0.70
2019-02-04T18:40:20.868Z,0.60
2019-02-04T18:45:20.366Z,0.70
2019-02-04T18:50:20.958Z,0.50
2019-02-04T18:55:21.585Z,0.50
2019-02-04T19:00:25.513Z,0.50
2019-02-04T19:05:26.576Z,0.40
2019-02-04T19:10:22.080Z,0.20
2019-02-04T19:15:23.126Z,0.20
2019-02-04T19:20:20.185Z,0.10
2019-02-04T19:25:17.584Z,0.00
2019-02-04T19:30:32.305Z,0.00
2019-02-04T19:35:27.207Z,0.00
2019-02-04T19:40:22.868Z,-0.10
2019-02-04T19:45:19.832Z,0.00
2019-02-04T19:50:21.800Z,-0.20
2019-02-04T19:55:17.803Z,-0.20
2019-02-04T20:00:20.576Z,0.10
2019-02-04T20:05:20.895Z,0.20
2019-02-04T20:10:20.065Z,0.10
2019-02-04T20:15:25.006Z,0.00
2019-02-04T20:20:21.342Z,0.00
2019-02-04T20:25:21.354Z,0.00
2019-02-04T20:30:20.336Z,-0.20
2019-02-04T20:35:15.294Z,-0.30
2019-02-04T20:40:21.372Z,-0.40
2019-02-04T20:45:17.570Z,-0.50
2019-02-04T20:50:18.356Z,-0.50
2019-02-04T20:55:15.638Z,-0.60
2019-02-04T21:00:16.322Z,-0.60
2019-02-04T21:05:11.971Z,-0.60
2019-02-04T21:10:12.213Z,-0.80
2019-02-04T21:15:10.108Z,-0.90
2019-02-04T21:20:07.599Z,-1.00
2019-02-04T21:25:02.212Z,-1.00
2019-02-04T21:29:57.471Z,-1.00
2019-02-04T21:34:52.584Z,-1.00
2019-02-04T21:39:47.535Z,-1.10
2019-02-04T21:44:43.509Z,-1.20
2019-02-04T21:49:38.292Z,-1.20
2019-02-04T21:54:35.449Z,-1.30
2019-02-04T21:59:30.334Z,-1.40
2019-02-04T22:04:25.298Z,-1.40
2019-02-04T22:09:21.777Z,-1.40
2019-02-04T22:14:17.697Z,-1.40
2019-02-04T22:19:12.372Z,-1.40
2019-02-04T22:24:06.967Z,-1.30
2019-02-04T22:29:01.428Z,-1.40
2019-02-04T22:33:57.586Z,-1.40
2019-02-04T22:38:53.925Z,-1.30
2019-02-04T22:43:47.886Z,-1.30
2019-02-04T22:48:43.292Z,-1.20
2019-02-04T22:53:37.845Z,-1.20
2019-02-04T22:58:32.919Z,-1.20
2019-02-04T23:03:29.884Z,-1.30
2019-02-04T23:08:27.127Z,-1.30
2019-02-04T23:13:23.112Z,-1.20
2019-02-04T23:18:17.616Z,-1.30
2019-02-04T23:23:12.245Z,-1.40
2019-02-04T23:28:06.821Z,-1.40
2019-02-04T23:33:01.026Z,-1.50
2019-02-04T23:37:55.845Z,-1.50
2019-02-04T23:42:49.931Z,-1.60
2019-02-04T23:47:48.128Z,-1.70
2019-02-04T23:52:44.122Z,-1.60
2019-02-04T23:57:39.725Z,-1.60
